sensor_id;sensor_type;location;lat;lon;timestamp;temperature;humidity
18998;DHT22;9632;51.018;4.284;2023-07-13T00:01:50;19.00;99.90
18998;DHT22;9632;51.018;4.284;2023-07-13T00:04:21;19.00;99.90
18998;DHT22;9632;51.018;4.284;2023-07-13T00:06:48;19.00;99.90
18998;DHT22;9632;51.018;4.284;2023-07-13T00:09:15;18.90;99.90
18998;DHT22;9632;51.018;4.284;2023-07-13T00:11:43;18.90;99.90
18998;DHT22;9632;51.018;4.284;2023-07-13T00:14:09;19.00;99.90
18998;DHT22;9632;51.018;4.284;2023-07-13T00:16:37;18.90;99.90
18998;DHT22;9632;51.018;4.284;2023-07-13T00:19:03;18.90;99.90
18998;DHT22;9632;51.018;4.284;2023-07-13T00:21:29;18.90;99.90
18998;DHT22;9632;51.018;4.284;2023-07-13T00:23:54;18.90;99.90
18998;DHT22;9632;51.018;4.284;2023-07-13T00:26:20;18.90;99.90
18998;DHT22;9632;51.018;4.284;2023-07-13T00:28:45;18.90;99.90
18998;DHT22;9632;51.018;4.284;2023-07-13T00:31:12;18.90;99.90
18998;DHT22;9632;51.018;4.284;2023-07-13T00:33:40;18.80;99.90
18998;DHT22;9632;51.018;4.284;2023-07-13T00:36:05;18.80;99.90
18998;DHT22;9632;51.018;4.284;2023-07-13T00:38:31;18.80;99.90
18998;DHT22;9632;51.018;4.284;2023-07-13T00:40:57;18.80;99.90
18998;DHT22;9632;51.018;4.284;2023-07-13T00:43:25;18.80;99.90
18998;DHT22;9632;51.018;4.284;2023-07-13T00:48:23;18.70;99.90
18998;DHT22;9632;51.018;4.284;2023-07-13T00:50:53;18.70;99.90
18998;DHT22;9632;51.018;4.284;2023-07-13T00:53:20;18.70;99.90
18998;DHT22;9632;51.018;4.284;2023-07-13T00:55:50;18.70;99.90
18998;DHT22;9632;51.018;4.284;2023-07-13T00:58:17;18.60;99.90
18998;DHT22;9632;51.018;4.284;2023-07-13T01:00:43;18.60;99.90
18998;DHT22;9632;51.018;4.284;2023-07-13T01:03:09;18.60;99.90
18998;DHT22;9632;51.018;4.284;2023-07-13T01:05:35;18.60;99.90
18998;DHT22;9632;51.018;4.284;2023-07-13T01:08:03;18.60;99.90
18998;DHT22;9632;51.018;4.284;2023-07-13T01:10:30;18.60;99.90
18998;DHT22;9632;51.018;4.284;2023-07-13T01:13:03;18.50;99.90
18998;DHT22;9632;51.018;4.284;2023-07-13T01:15:42;18.60;99.90
18998;DHT22;9632;51.018;4.284;2023-07-13T01:18:11;18.50;99.90
18998;DHT22;9632;51.018;4.284;2023-07-13T01:20:38;18.50;99.90
18998;DHT22;9632;51.018;4.284;2023-07-13T01:23:12;18.50;99.90
18998;DHT22;9632;51.018;4.284;2023-07-13T01:25:38;18.50;99.90
18998;DHT22;9632;51.018;4.284;2023-07-13T01:28:06;18.50;99.90
18998;DHT22;9632;51.018;4.284;2023-07-13T01:30:32;18.40;99.90
18998;DHT22;9632;51.018;4.284;2023-07-13T01:32:58;18.40;99.90
18998;DHT22;9632;51.018;4.284;2023-07-13T01:35:24;18.40;99.90
18998;DHT22;9632;51.018;4.284;2023-07-13T01:37:52;18.40;99.90
18998;DHT22;9632;51.018;4.284;2023-07-13T01:40:18;18.40;99.90
18998;DHT22;9632;51.018;4.284;2023-07-13T01:42:44;18.30;99.90
18998;DHT22;9632;51.018;4.284;2023-07-13T01:45:09;18.30;99.90
18998;DHT22;9632;51.018;4.284;2023-07-13T01:47:35;18.30;99.90
18998;DHT22;9632;51.018;4.284;2023-07-13T01:50:01;18.30;99.90
18998;DHT22;9632;51.018;4.284;2023-07-13T01:52:26;18.30;99.90
18998;DHT22;9632;51.018;4.284;2023-07-13T01:54:52;18.30;99.90
18998;DHT22;9632;51.018;4.284;2023-07-13T01:57:18;18.30;99.90
18998;DHT22;9632;51.018;4.284;2023-07-13T01:59:43;18.20;99.90
18998;DHT22;9632;51.018;4.284;2023-07-13T02:02:09;18.20;99.90
18998;DHT22;9632;51.018;4.284;2023-07-13T02:04:36;18.20;99.90
18998;DHT22;9632;51.018;4.284;2023-07-13T02:07:01;18.20;99.90
18998;DHT22;9632;51.018;4.284;2023-07-13T02:09:27;18.20;99.90
18998;DHT22;9632;51.018;4.284;2023-07-13T02:11:53;18.10;99.90
18998;DHT22;9632;51.018;4.284;2023-07-13T02:14:18;18.10;99.90
18998;DHT22;9632;51.018;4.284;2023-07-13T02:16:44;18.10;99.90
18998;DHT22;9632;51.018;4.284;2023-07-13T02:19:10;18.00;99.90
18998;DHT22;9632;51.018;4.284;2023-07-13T02:21:35;18.10;99.90
18998;DHT22;9632;51.018;4.284;2023-07-13T02:24:01;18.00;99.90
18998;DHT22;9632;51.018;4.284;2023-07-13T02:26:27;18.00;99.90
18998;DHT22;9632;51.018;4.284;2023-07-13T02:28:52;18.00;99.90
18998;DHT22;9632;51.018;4.284;2023-07-13T02:31:18;18.00;99.90
18998;DHT22;9632;51.018;4.284;2023-07-13T02:33:44;18.00;99.90
18998;DHT22;9632;51.018;4.284;2023-07-13T02:36:11;18.00;99.90
18998;DHT22;9632;51.018;4.284;2023-07-13T02:38:37;18.00;99.90
18998;DHT22;9632;51.018;4.284;2023-07-13T02:41:07;17.90;99.90
18998;DHT22;9632;51.018;4.284;2023-07-13T02:43:34;17.90;99.90
18998;DHT22;9632;51.018;4.284;2023-07-13T02:46:01;17.90;99.90
18998;DHT22;9632;51.018;4.284;2023-07-13T02:48:33;17.90;99.90
18998;DHT22;9632;51.018;4.284;2023-07-13T02:50:58;17.90;99.90
18998;DHT22;9632;51.018;4.284;2023-07-13T02:53:24;17.80;99.90
18998;DHT22;9632;51.018;4.284;2023-07-13T02:55:50;17.90;99.90
18998;DHT22;9632;51.018;4.284;2023-07-13T02:58:16;17.90;99.90
18998;DHT22;9632;51.018;4.284;2023-07-13T03:00:45;17.80;99.90
18998;DHT22;9632;51.018;4.284;2023-07-13T03:03:12;17.80;99.90
18998;DHT22;9632;51.018;4.284;2023-07-13T03:05:41;17.90;99.90
18998;DHT22;9632;51.018;4.284;2023-07-13T03:08:07;17.90;99.90
18998;DHT22;9632;51.018;4.284;2023-07-13T03:10:33;17.90;99.90
18998;DHT22;9632;51.018;4.284;2023-07-13T03:12:59;17.90;99.90
18998;DHT22;9632;51.018;4.284;2023-07-13T03:15:24;17.90;99.90
18998;DHT22;9632;51.018;4.284;2023-07-13T03:17:50;17.80;99.90
18998;DHT22;9632;51.018;4.284;2023-07-13T03:20:16;17.80;99.90
18998;DHT22;9632;51.018;4.284;2023-07-13T03:22:42;17.80;99.90
18998;DHT22;9632;51.018;4.284;2023-07-13T03:25:08;17.80;99.90
18998;DHT22;9632;51.018;4.284;2023-07-13T03:27:33;17.80;99.90
18998;DHT22;9632;51.018;4.284;2023-07-13T03:29:59;17.80;99.90
18998;DHT22;9632;51.018;4.284;2023-07-13T03:32:25;17.80;99.90
18998;DHT22;9632;51.018;4.284;2023-07-13T03:34:50;17.80;99.90
18998;DHT22;9632;51.018;4.284;2023-07-13T03:37:16;17.90;99.90
18998;DHT22;9632;51.018;4.284;2023-07-13T03:39:41;17.90;99.90
18998;DHT22;9632;51.018;4.284;2023-07-13T03:42:08;17.90;99.90
18998;DHT22;9632;51.018;4.284;2023-07-13T03:44:35;18.00;99.90
18998;DHT22;9632;51.018;4.284;2023-07-13T03:47:00;18.00;99.90
18998;DHT22;9632;51.018;4.284;2023-07-13T03:49:26;18.00;99.90
18998;DHT22;9632;51.018;4.284;2023-07-13T03:51:52;18.00;99.90
18998;DHT22;9632;51.018;4.284;2023-07-13T03:54:17;18.00;99.90
18998;DHT22;9632;51.018;4.284;2023-07-13T03:56:43;18.00;99.90
18998;DHT22;9632;51.018;4.284;2023-07-13T03:59:08;18.10;99.90
18998;DHT22;9632;51.018;4.284;2023-07-13T04:01:34;18.10;99.90
18998;DHT22;9632;51.018;4.284;2023-07-13T04:04:00;18.10;99.90
18998;DHT22;9632;51.018;4.284;2023-07-13T04:06:28;18.00;99.90
18998;DHT22;9632;51.018;4.284;2023-07-13T04:08:56;18.00;99.90
18998;DHT22;9632;51.018;4.284;2023-07-13T04:11:26;18.00;99.90
18998;DHT22;9632;51.018;4.284;2023-07-13T04:13:52;18.00;99.90
18998;DHT22;9632;51.018;4.284;2023-07-13T04:16:19;18.10;99.90
18998;DHT22;9632;51.018;4.284;2023-07-13T04:18:46;18.10;99.90
18998;DHT22;9632;51.018;4.284;2023-07-13T04:21:12;18.00;99.90
18998;DHT22;9632;51.018;4.284;2023-07-13T04:23:38;18.00;99.90
18998;DHT22;9632;51.018;4.284;2023-07-13T04:26:04;18.00;99.90
18998;DHT22;9632;51.018;4.284;2023-07-13T04:28:30;18.00;99.90
18998;DHT22;9632;51.018;4.284;2023-07-13T04:30:56;18.00;99.90
18998;DHT22;9632;51.018;4.284;2023-07-13T04:33:22;18.00;99.90
18998;DHT22;9632;51.018;4.284;2023-07-13T04:35:53;18.10;99.90
18998;DHT22;9632;51.018;4.284;2023-07-13T04:38:22;18.10;99.90
18998;DHT22;9632;51.018;4.284;2023-07-13T04:40:50;18.10;99.90
18998;DHT22;9632;51.018;4.284;2023-07-13T04:43:16;18.10;99.90
18998;DHT22;9632;51.018;4.284;2023-07-13T04:45:42;18.10;99.90
18998;DHT22;9632;51.018;4.284;2023-07-13T04:48:08;18.20;99.90
18998;DHT22;9632;51.018;4.284;2023-07-13T04:50:37;18.20;99.90
18998;DHT22;9632;51.018;4.284;2023-07-13T04:53:03;18.20;99.90
18998;DHT22;9632;51.018;4.284;2023-07-13T04:55:30;18.20;99.90
18998;DHT22;9632;51.018;4.284;2023-07-13T04:57:56;18.30;99.90
18998;DHT22;9632;51.018;4.284;2023-07-13T05:00:24;18.30;99.90
18998;DHT22;9632;51.018;4.284;2023-07-13T05:02:50;18.30;99.90
18998;DHT22;9632;51.018;4.284;2023-07-13T05:05:15;18.30;99.90
18998;DHT22;9632;51.018;4.284;2023-07-13T05:07:41;18.30;99.90
18998;DHT22;9632;51.018;4.284;2023-07-13T05:10:07;18.30;99.90
18998;DHT22;9632;51.018;4.284;2023-07-13T05:12:33;18.30;99.90
18998;DHT22;9632;51.018;4.284;2023-07-13T05:14:59;18.20;99.90
18998;DHT22;9632;51.018;4.284;2023-07-13T05:17:24;18.20;99.90
18998;DHT22;9632;51.018;4.284;2023-07-13T05:19:50;18.20;99.90
18998;DHT22;9632;51.018;4.284;2023-07-13T05:22:15;18.30;99.90
18998;DHT22;9632;51.018;4.284;2023-07-13T05:24:41;18.30;99.90
18998;DHT22;9632;51.018;4.284;2023-07-13T05:27:07;18.40;99.90
18998;DHT22;9632;51.018;4.284;2023-07-13T05:29:32;18.40;99.90
18998;DHT22;9632;51.018;4.284;2023-07-13T05:31:58;18.50;99.90
18998;DHT22;9632;51.018;4.284;2023-07-13T05:34:23;18.40;99.90
18998;DHT22;9632;51.018;4.284;2023-07-13T05:36:49;18.30;99.90
18998;DHT22;9632;51.018;4.284;2023-07-13T05:39:16;18.40;99.90
18998;DHT22;9632;51.018;4.284;2023-07-13T05:41:42;18.30;99.90
18998;DHT22;9632;51.018;4.284;2023-07-13T05:44:07;18.30;99.90
18998;DHT22;9632;51.018;4.284;2023-07-13T05:46:33;18.30;99.90
18998;DHT22;9632;51.018;4.284;2023-07-13T05:48:59;18.30;99.90
18998;DHT22;9632;51.018;4.284;2023-07-13T05:51:25;18.40;99.90
18998;DHT22;9632;51.018;4.284;2023-07-13T05:53:50;18.50;99.90
18998;DHT22;9632;51.018;4.284;2023-07-13T05:56:16;18.40;99.90
18998;DHT22;9632;51.018;4.284;2023-07-13T05:58:41;18.50;99.90
18998;DHT22;9632;51.018;4.284;2023-07-13T06:01:10;18.40;99.90
18998;DHT22;9632;51.018;4.284;2023-07-13T06:03:37;18.60;99.90
18998;DHT22;9632;51.018;4.284;2023-07-13T06:06:07;18.60;99.90
18998;DHT22;9632;51.018;4.284;2023-07-13T06:08:33;18.60;99.90
18998;DHT22;9632;51.018;4.284;2023-07-13T06:11:07;18.70;99.90
18998;DHT22;9632;51.018;4.284;2023-07-13T06:13:33;18.70;99.90
18998;DHT22;9632;51.018;4.284;2023-07-13T06:15:59;18.70;99.90
18998;DHT22;9632;51.018;4.284;2023-07-13T06:18:25;18.70;99.90
18998;DHT22;9632;51.018;4.284;2023-07-13T06:20:51;18.70;99.90
18998;DHT22;9632;51.018;4.284;2023-07-13T06:23:16;18.80;99.90
18998;DHT22;9632;51.018;4.284;2023-07-13T06:25:43;19.00;99.90
18998;DHT22;9632;51.018;4.284;2023-07-13T06:28:09;19.00;99.90
18998;DHT22;9632;51.018;4.284;2023-07-13T06:30:34;19.10;99.90
18998;DHT22;9632;51.018;4.284;2023-07-13T06:33:00;19.10;99.90
18998;DHT22;9632;51.018;4.284;2023-07-13T06:35:25;19.20;99.90
18998;DHT22;9632;51.018;4.284;2023-07-13T06:37:51;19.30;99.90
18998;DHT22;9632;51.018;4.284;2023-07-13T06:40:17;19.30;99.90
18998;DHT22;9632;51.018;4.284;2023-07-13T06:42:42;19.40;99.90
18998;DHT22;9632;51.018;4.284;2023-07-13T06:45:08;19.50;99.90
18998;DHT22;9632;51.018;4.284;2023-07-13T06:47:34;19.50;99.90
18998;DHT22;9632;51.018;4.284;2023-07-13T06:50:00;19.60;99.90
18998;DHT22;9632;51.018;4.284;2023-07-13T06:52:26;19.70;99.90
18998;DHT22;9632;51.018;4.284;2023-07-13T06:54:51;19.70;99.90
18998;DHT22;9632;51.018;4.284;2023-07-13T06:57:17;19.70;99.90
18998;DHT22;9632;51.018;4.284;2023-07-13T06:59:43;19.80;99.90
18998;DHT22;9632;51.018;4.284;2023-07-13T07:02:10;19.90;99.90
18998;DHT22;9632;51.018;4.284;2023-07-13T07:04:36;19.90;99.90
18998;DHT22;9632;51.018;4.284;2023-07-13T07:07:01;19.90;99.90
18998;DHT22;9632;51.018;4.284;2023-07-13T07:09:27;20.00;99.90
18998;DHT22;9632;51.018;4.284;2023-07-13T07:11:55;20.10;99.90
18998;DHT22;9632;51.018;4.284;2023-07-13T07:14:20;20.30;99.90
18998;DHT22;9632;51.018;4.284;2023-07-13T07:16:46;20.40;99.90
18998;DHT22;9632;51.018;4.284;2023-07-13T07:19:11;20.60;99.90
18998;DHT22;9632;51.018;4.284;2023-07-13T07:21:37;20.70;99.90
18998;DHT22;9632;51.018;4.284;2023-07-13T07:24:03;20.80;99.90
18998;DHT22;9632;51.018;4.284;2023-07-13T07:26:30;20.90;99.90
18998;DHT22;9632;51.018;4.284;2023-07-13T07:28:56;21.20;99.90
18998;DHT22;9632;51.018;4.284;2023-07-13T07:31:22;21.40;99.90
18998;DHT22;9632;51.018;4.284;2023-07-13T07:33:47;21.50;99.90
18998;DHT22;9632;51.018;4.284;2023-07-13T07:36:15;21.70;99.90
18998;DHT22;9632;51.018;4.284;2023-07-13T07:38:42;21.90;99.90
18998;DHT22;9632;51.018;4.284;2023-07-13T07:41:07;22.10;99.90
18998;DHT22;9632;51.018;4.284;2023-07-13T07:43:33;22.30;99.90
18998;DHT22;9632;51.018;4.284;2023-07-13T07:45:59;22.40;99.90
18998;DHT22;9632;51.018;4.284;2023-07-13T07:48:25;22.30;99.90
18998;DHT22;9632;51.018;4.284;2023-07-13T07:50:51;22.20;99.90
18998;DHT22;9632;51.018;4.284;2023-07-13T07:53:16;22.00;99.90
18998;DHT22;9632;51.018;4.284;2023-07-13T07:55:42;21.90;99.90
18998;DHT22;9632;51.018;4.284;2023-07-13T07:58:07;21.90;99.90
18998;DHT22;9632;51.018;4.284;2023-07-13T08:00:33;21.90;99.90
18998;DHT22;9632;51.018;4.284;2023-07-13T08:03:01;22.00;99.90
18998;DHT22;9632;51.018;4.284;2023-07-13T08:05:26;22.00;99.90
18998;DHT22;9632;51.018;4.284;2023-07-13T08:07:52;21.90;99.90
18998;DHT22;9632;51.018;4.284;2023-07-13T08:10:18;21.90;99.90
18998;DHT22;9632;51.018;4.284;2023-07-13T08:12:44;21.90;99.90
18998;DHT22;9632;51.018;4.284;2023-07-13T08:15:13;22.10;99.90
18998;DHT22;9632;51.018;4.284;2023-07-13T08:17:39;22.40;99.90
18998;DHT22;9632;51.018;4.284;2023-07-13T08:20:05;22.50;99.90
18998;DHT22;9632;51.018;4.284;2023-07-13T08:22:31;22.50;99.90
18998;DHT22;9632;51.018;4.284;2023-07-13T08:24:58;22.60;99.90
18998;DHT22;9632;51.018;4.284;2023-07-13T08:27:24;22.70;99.90
18998;DHT22;9632;51.018;4.284;2023-07-13T08:29:51;22.80;99.90
18998;DHT22;9632;51.018;4.284;2023-07-13T08:32:18;22.60;99.90
18998;DHT22;9632;51.018;4.284;2023-07-13T08:34:45;22.70;99.90
18998;DHT22;9632;51.018;4.284;2023-07-13T08:37:10;22.80;99.90
18998;DHT22;9632;51.018;4.284;2023-07-13T08:39:36;23.00;99.90
18998;DHT22;9632;51.018;4.284;2023-07-13T08:42:10;23.10;99.90
18998;DHT22;9632;51.018;4.284;2023-07-13T08:47:28;23.30;99.90
18998;DHT22;9632;51.018;4.284;2023-07-13T08:49:54;23.40;99.90
18998;DHT22;9632;51.018;4.284;2023-07-13T08:52:35;23.50;99.90
18998;DHT22;9632;51.018;4.284;2023-07-13T08:55:16;23.50;99.90
18998;DHT22;9632;51.018;4.284;2023-07-13T08:57:45;23.50;99.90
18998;DHT22;9632;51.018;4.284;2023-07-13T09:00:12;23.40;99.90
18998;DHT22;9632;51.018;4.284;2023-07-13T09:02:50;23.30;99.90
18998;DHT22;9632;51.018;4.284;2023-07-13T09:05:46;23.30;99.90
18998;DHT22;9632;51.018;4.284;2023-07-13T09:10:52;23.20;99.90
18998;DHT22;9632;51.018;4.284;2023-07-13T09:15:49;23.20;99.90
18998;DHT22;9632;51.018;4.284;2023-07-13T09:21:10;23.50;99.90
18998;DHT22;9632;51.018;4.284;2023-07-13T09:23:38;23.70;99.90
18998;DHT22;9632;51.018;4.284;2023-07-13T09:26:15;23.60;99.90
18998;DHT22;9632;51.018;4.284;2023-07-13T09:28:46;23.60;99.90
18998;DHT22;9632;51.018;4.284;2023-07-13T09:31:34;23.80;99.90
18998;DHT22;9632;51.018;4.284;2023-07-13T09:34:02;23.80;99.90
18998;DHT22;9632;51.018;4.284;2023-07-13T09:36:30;23.90;99.90
18998;DHT22;9632;51.018;4.284;2023-07-13T09:46:35;24.20;99.90
18998;DHT22;9632;51.018;4.284;2023-07-13T09:49:01;24.20;99.90
18998;DHT22;9632;51.018;4.284;2023-07-13T09:51:26;24.20;99.90
18998;DHT22;9632;51.018;4.284;2023-07-13T09:53:53;24.20;99.90
18998;DHT22;9632;51.018;4.284;2023-07-13T09:56:25;24.30;99.90
18998;DHT22;9632;51.018;4.284;2023-07-13T09:58:51;24.40;99.90
18998;DHT22;9632;51.018;4.284;2023-07-13T10:01:32;24.40;99.90
18998;DHT22;9632;51.018;4.284;2023-07-13T10:03:59;24.60;99.90
18998;DHT22;9632;51.018;4.284;2023-07-13T10:06:24;24.40;99.90
18998;DHT22;9632;51.018;4.284;2023-07-13T10:08:52;24.50;99.90
18998;DHT22;9632;51.018;4.284;2023-07-13T10:11:28;24.50;99.90
18998;DHT22;9632;51.018;4.284;2023-07-13T10:16:27;24.70;99.90
18998;DHT22;9632;51.018;4.284;2023-07-13T10:18:59;24.70;99.90
18998;DHT22;9632;51.018;4.284;2023-07-13T10:21:32;24.70;99.90
18998;DHT22;9632;51.018;4.284;2023-07-13T10:24:24;24.70;99.90
18998;DHT22;9632;51.018;4.284;2023-07-13T10:27:01;24.80;99.90
18998;DHT22;9632;51.018;4.284;2023-07-13T10:29:35;24.80;99.90
18998;DHT22;9632;51.018;4.284;2023-07-13T10:32:01;24.80;99.90
18998;DHT22;9632;51.018;4.284;2023-07-13T10:34:27;24.90;99.90
18998;DHT22;9632;51.018;4.284;2023-07-13T10:36:54;24.80;99.90
18998;DHT22;9632;51.018;4.284;2023-07-13T10:39:26;25.00;99.90
18998;DHT22;9632;51.018;4.284;2023-07-13T10:41:58;25.10;99.90
18998;DHT22;9632;51.018;4.284;2023-07-13T10:44:30;25.00;99.90
18998;DHT22;9632;51.018;4.284;2023-07-13T10:46:59;25.00;99.90
18998;DHT22;9632;51.018;4.284;2023-07-13T10:49:28;25.10;99.90
18998;DHT22;9632;51.018;4.284;2023-07-13T10:51:55;25.20;99.90
18998;DHT22;9632;51.018;4.284;2023-07-13T10:57:15;25.20;99.90
18998;DHT22;9632;51.018;4.284;2023-07-13T10:59:46;25.20;99.90
18998;DHT22;9632;51.018;4.284;2023-07-13T11:02:30;25.20;99.90
18998;DHT22;9632;51.018;4.284;2023-07-13T11:04:57;25.10;99.90
18998;DHT22;9632;51.018;4.284;2023-07-13T11:07:28;25.10;99.90
18998;DHT22;9632;51.018;4.284;2023-07-13T11:10:00;25.00;99.90
18998;DHT22;9632;51.018;4.284;2023-07-13T11:15:43;25.10;99.90
18998;DHT22;9632;51.018;4.284;2023-07-13T11:18:21;25.20;99.90
18998;DHT22;9632;51.018;4.284;2023-07-13T11:20:48;25.10;99.90
18998;DHT22;9632;51.018;4.284;2023-07-13T11:25:42;25.10;99.90
18998;DHT22;9632;51.018;4.284;2023-07-13T11:30:49;25.10;99.90
18998;DHT22;9632;51.018;4.284;2023-07-13T11:33:24;25.00;99.90
18998;DHT22;9632;51.018;4.284;2023-07-13T11:36:05;25.00;99.90
18998;DHT22;9632;51.018;4.284;2023-07-13T11:38:37;25.00;99.90
18998;DHT22;9632;51.018;4.284;2023-07-13T11:41:07;25.10;99.90
18998;DHT22;9632;51.018;4.284;2023-07-13T11:43:37;25.00;99.90
18998;DHT22;9632;51.018;4.284;2023-07-13T11:46:20;24.80;99.90
18998;DHT22;9632;51.018;4.284;2023-07-13T11:48:47;24.50;99.90
18998;DHT22;9632;51.018;4.284;2023-07-13T11:51:34;24.20;99.90
18998;DHT22;9632;51.018;4.284;2023-07-13T11:54:43;24.00;99.90
18998;DHT22;9632;51.018;4.284;2023-07-13T11:59:27;23.50;99.90
18998;DHT22;9632;51.018;4.284;2023-07-13T12:01:55;23.40;99.90
18998;DHT22;9632;51.018;4.284;2023-07-13T12:04:27;23.30;99.90
18998;DHT22;9632;51.018;4.284;2023-07-13T12:06:58;23.10;99.90
18998;DHT22;9632;51.018;4.284;2023-07-13T12:09:26;22.90;99.90
18998;DHT22;9632;51.018;4.284;2023-07-13T12:11:52;22.70;99.90
18998;DHT22;9632;51.018;4.284;2023-07-13T12:14:18;22.60;99.90
18998;DHT22;9632;51.018;4.284;2023-07-13T12:16:46;22.40;99.90
18998;DHT22;9632;51.018;4.284;2023-07-13T12:19:21;22.40;99.90
18998;DHT22;9632;51.018;4.284;2023-07-13T12:21:47;22.40;99.90
18998;DHT22;9632;51.018;4.284;2023-07-13T12:24:18;22.40;99.90
18998;DHT22;9632;51.018;4.284;2023-07-13T12:26:45;22.40;99.90
18998;DHT22;9632;51.018;4.284;2023-07-13T12:29:16;22.40;99.90
18998;DHT22;9632;51.018;4.284;2023-07-13T12:31:45;22.40;99.90
18998;DHT22;9632;51.018;4.284;2023-07-13T12:34:14;22.40;99.90
18998;DHT22;9632;51.018;4.284;2023-07-13T12:36:50;22.40;99.90
18998;DHT22;9632;51.018;4.284;2023-07-13T12:41:45;22.30;99.90
18998;DHT22;9632;51.018;4.284;2023-07-13T12:44:13;22.40;99.90
18998;DHT22;9632;51.018;4.284;2023-07-13T12:46:39;22.40;99.90
18998;DHT22;9632;51.018;4.284;2023-07-13T12:49:17;22.30;99.90
18998;DHT22;9632;51.018;4.284;2023-07-13T12:51:50;22.30;99.90
18998;DHT22;9632;51.018;4.284;2023-07-13T12:54:18;22.30;99.90
18998;DHT22;9632;51.018;4.284;2023-07-13T12:56:45;22.30;99.90
18998;DHT22;9632;51.018;4.284;2023-07-13T12:59:19;22.20;99.90
18998;DHT22;9632;51.018;4.284;2023-07-13T13:01:46;22.20;99.90
18998;DHT22;9632;51.018;4.284;2023-07-13T13:04:12;22.30;99.90
18998;DHT22;9632;51.018;4.284;2023-07-13T13:06:39;22.30;99.90
18998;DHT22;9632;51.018;4.284;2023-07-13T13:09:12;22.40;99.90
18998;DHT22;9632;51.018;4.284;2023-07-13T13:11:38;22.60;99.90
18998;DHT22;9632;51.018;4.284;2023-07-13T13:14:05;22.70;99.90
18998;DHT22;9632;51.018;4.284;2023-07-13T13:16:33;22.80;99.90
18998;DHT22;9632;51.018;4.284;2023-07-13T13:19:25;22.90;99.90
18998;DHT22;9632;51.018;4.284;2023-07-13T13:21:52;22.90;99.90
18998;DHT22;9632;51.018;4.284;2023-07-13T13:24:23;22.90;99.90
18998;DHT22;9632;51.018;4.284;2023-07-13T13:26:51;22.80;99.90
18998;DHT22;9632;51.018;4.284;2023-07-13T13:29:22;22.80;99.90
18998;DHT22;9632;51.018;4.284;2023-07-13T13:31:51;22.70;99.90
18998;DHT22;9632;51.018;4.284;2023-07-13T13:34:19;22.80;99.90
18998;DHT22;9632;51.018;4.284;2023-07-13T13:36:47;22.80;99.90
18998;DHT22;9632;51.018;4.284;2023-07-13T13:39:21;22.90;99.90
18998;DHT22;9632;51.018;4.284;2023-07-13T13:41:49;23.00;99.90
18998;DHT22;9632;51.018;4.284;2023-07-13T13:44:19;23.10;99.90
18998;DHT22;9632;51.018;4.284;2023-07-13T13:46:47;23.20;99.90
18998;DHT22;9632;51.018;4.284;2023-07-13T13:49:23;23.30;99.90
18998;DHT22;9632;51.018;4.284;2023-07-13T13:51:50;23.30;99.90
18998;DHT22;9632;51.018;4.284;2023-07-13T13:54:17;23.40;99.90
18998;DHT22;9632;51.018;4.284;2023-07-13T13:56:45;23.40;99.90
18998;DHT22;9632;51.018;4.284;2023-07-13T13:59:12;23.50;99.90
18998;DHT22;9632;51.018;4.284;2023-07-13T14:01:39;23.50;99.90
18998;DHT22;9632;51.018;4.284;2023-07-13T14:04:06;23.50;99.90
18998;DHT22;9632;51.018;4.284;2023-07-13T14:06:33;23.50;99.90
18998;DHT22;9632;51.018;4.284;2023-07-13T14:09:00;23.50;99.90
18998;DHT22;9632;51.018;4.284;2023-07-13T14:11:25;23.50;99.90
18998;DHT22;9632;51.018;4.284;2023-07-13T14:13:56;23.50;99.90
18998;DHT22;9632;51.018;4.284;2023-07-13T14:16:27;23.50;99.90
18998;DHT22;9632;51.018;4.284;2023-07-13T14:18:53;23.50;99.90
18998;DHT22;9632;51.018;4.284;2023-07-13T14:21:20;23.60;99.90
18998;DHT22;9632;51.018;4.284;2023-07-13T14:23:47;23.60;99.90
18998;DHT22;9632;51.018;4.284;2023-07-13T14:26:22;23.60;99.90
18998;DHT22;9632;51.018;4.284;2023-07-13T14:28:54;23.60;99.90
18998;DHT22;9632;51.018;4.284;2023-07-13T14:31:21;23.60;99.90
18998;DHT22;9632;51.018;4.284;2023-07-13T14:33:47;23.60;99.90
18998;DHT22;9632;51.018;4.284;2023-07-13T14:38:46;23.60;99.90
18998;DHT22;9632;51.018;4.284;2023-07-13T14:41:12;23.70;99.90
18998;DHT22;9632;51.018;4.284;2023-07-13T14:43:37;23.80;99.90
18998;DHT22;9632;51.018;4.284;2023-07-13T14:46:03;23.90;99.90
18998;DHT22;9632;51.018;4.284;2023-07-13T14:48:30;24.00;99.90
18998;DHT22;9632;51.018;4.284;2023-07-13T14:50:58;24.00;99.90
18998;DHT22;9632;51.018;4.284;2023-07-13T14:53:26;24.00;99.90
18998;DHT22;9632;51.018;4.284;2023-07-13T14:55:53;24.10;99.90
18998;DHT22;9632;51.018;4.284;2023-07-13T14:58:19;24.00;99.90
18998;DHT22;9632;51.018;4.284;2023-07-13T15:00:45;24.10;99.90
18998;DHT22;9632;51.018;4.284;2023-07-13T15:03:21;24.10;99.90
18998;DHT22;9632;51.018;4.284;2023-07-13T15:05:47;24.20;99.90
18998;DHT22;9632;51.018;4.284;2023-07-13T15:08:13;24.20;99.90
18998;DHT22;9632;51.018;4.284;2023-07-13T15:10:40;24.20;99.90
18998;DHT22;9632;51.018;4.284;2023-07-13T15:13:19;24.30;99.90
18998;DHT22;9632;51.018;4.284;2023-07-13T15:15:49;24.30;99.90
18998;DHT22;9632;51.018;4.284;2023-07-13T15:18:18;24.30;99.90
18998;DHT22;9632;51.018;4.284;2023-07-13T15:20:45;24.40;99.90
18998;DHT22;9632;51.018;4.284;2023-07-13T15:23:13;24.40;99.90
18998;DHT22;9632;51.018;4.284;2023-07-13T15:25:40;24.40;99.90
18998;DHT22;9632;51.018;4.284;2023-07-13T15:28:06;24.40;99.90
18998;DHT22;9632;51.018;4.284;2023-07-13T15:30:36;24.40;99.90
18998;DHT22;9632;51.018;4.284;2023-07-13T15:33:25;24.40;99.90
18998;DHT22;9632;51.018;4.284;2023-07-13T15:35:51;24.40;99.90
18998;DHT22;9632;51.018;4.284;2023-07-13T15:38:24;24.50;99.90
18998;DHT22;9632;51.018;4.284;2023-07-13T15:40:51;24.40;99.90
18998;DHT22;9632;51.018;4.284;2023-07-13T15:43:18;24.40;99.90
18998;DHT22;9632;51.018;4.284;2023-07-13T15:45:44;24.50;99.90
18998;DHT22;9632;51.018;4.284;2023-07-13T15:48:25;24.40;99.90
18998;DHT22;9632;51.018;4.284;2023-07-13T15:51:00;24.60;99.90
18998;DHT22;9632;51.018;4.284;2023-07-13T15:53:32;24.60;99.90
18998;DHT22;9632;51.018;4.284;2023-07-13T15:55:58;24.70;99.90
18998;DHT22;9632;51.018;4.284;2023-07-13T15:58:24;24.70;99.90
18998;DHT22;9632;51.018;4.284;2023-07-13T16:00:50;24.70;99.90
18998;DHT22;9632;51.018;4.284;2023-07-13T16:03:17;24.70;99.90
18998;DHT22;9632;51.018;4.284;2023-07-13T16:05:42;24.70;99.90
18998;DHT22;9632;51.018;4.284;2023-07-13T16:08:31;24.70;99.90
18998;DHT22;9632;51.018;4.284;2023-07-13T16:10:58;24.70;99.90
18998;DHT22;9632;51.018;4.284;2023-07-13T16:13:24;24.70;99.90
18998;DHT22;9632;51.018;4.284;2023-07-13T16:15:51;24.70;99.90
18998;DHT22;9632;51.018;4.284;2023-07-13T16:18:17;24.60;99.90
18998;DHT22;9632;51.018;4.284;2023-07-13T16:20:45;24.60;99.90
18998;DHT22;9632;51.018;4.284;2023-07-13T16:23:12;24.60;99.90
18998;DHT22;9632;51.018;4.284;2023-07-13T16:25:39;24.60;99.90
18998;DHT22;9632;51.018;4.284;2023-07-13T16:28:06;24.60;99.90
18998;DHT22;9632;51.018;4.284;2023-07-13T16:30:34;24.60;99.90
18998;DHT22;9632;51.018;4.284;2023-07-13T16:33:01;24.70;99.90